Time;durP1;ratioP1;P1;durP2;ratioP2;P2;SDS_P1;SDS_P2;PMS_P1;PMS_P2;Temp;Humidity;BMP_temperature;BMP_pressure;BME280_temperature;BME280_humidity;BME280_pressure;Samples;Min_cycle;Max_cycle;Signal;HPM_P1;HPM_P2
2023/05/23 00:00:14;;;;;;;11.70;9.10;;;;;;;;;;4981594;28;20088;-62
2023/05/23 00:02:41;;;;;;;10.48;9.05;;;;;;;;;;4980938;28;20082;-62
2023/05/23 00:05:07;;;;;;;10.60;9.13;;;;;;;;;;4981555;28;20517;-60
2023/05/23 00:07:32;;;;;;;12.48;9.70;;;;;;;;;;4982286;28;20031;-61
2023/05/23 00:09:58;;;;;;;11.20;10.07;;;;;;;;;;4981145;28;20394;-61
2023/05/23 00:12:23;;;;;;;12.52;9.10;;;;;;;;;;4981035;28;20047;-62
2023/05/23 00:14:49;;;;;;;10.48;9.02;;;;;;;;;;4981046;28;20450;-61
2023/05/23 00:17:16;;;;;;;11.80;9.60;;;;;;;;;;4982184;28;20082;-59
2023/05/23 00:19:44;;;;;;;11.25;9.30;;;;;;;;;;4982365;28;20055;-60
2023/05/23 00:22:10;;;;;;;11.30;9.80;;;;;;;;;;4984968;28;20490;-60
2023/05/23 00:24:36;;;;;;;12.13;9.32;;;;;;;;;;4981005;28;20022;-61
2023/05/23 00:27:01;;;;;;;11.18;9.55;;;;;;;;;;4982716;28;20038;-62
2023/05/23 00:29:27;;;;;;;12.52;8.77;;;;;;;;;;4982162;28;20061;-61
2023/05/23 00:31:52;;;;;;;10.65;9.55;;;;;;;;;;4979581;28;20461;-62
2023/05/23 00:34:18;;;;;;;11.02;9.38;;;;;;;;;;4980127;28;20042;-61
2023/05/23 00:36:46;;;;;;;11.13;9.30;;;;;;;;;;4980420;28;20122;-61
2023/05/23 00:39:17;;;;;;;10.80;9.40;;;;;;;;;;4981352;28;20445;-61
2023/05/23 00:41:44;;;;;;;11.02;8.63;;;;;;;;;;4981336;28;20571;-62
2023/05/23 00:44:10;;;;;;;10.10;8.70;;;;;;;;;;4984978;28;20084;-60
2023/05/23 00:46:36;;;;;;;11.68;8.52;;;;;;;;;;4979919;28;20060;-61
2023/05/23 00:49:02;;;;;;;9.70;8.70;;;;;;;;;;4981210;28;20589;-60
2023/05/23 00:51:27;;;;;;;10.48;9.20;;;;;;;;;;4982234;28;20062;-62
2023/05/23 00:53:54;;;;;;;10.13;9.13;;;;;;;;;;4980947;28;20537;-60
2023/05/23 00:56:20;;;;;;;11.95;8.50;;;;;;;;;;4994048;28;20038;-60
2023/05/23 00:58:46;;;;;;;9.18;7.95;;;;;;;;;;4979228;28;20034;-61
2023/05/23 01:01:12;;;;;;;10.07;8.55;;;;;;;;;;4979031;28;20051;-61
2023/05/23 01:03:37;;;;;;;10.45;8.38;;;;;;;;;;4980083;28;20045;-61
2023/05/23 01:06:03;;;;;;;11.32;9.52;;;;;;;;;;4982495;28;20077;-60
2023/05/23 01:08:28;;;;;;;12.93;8.20;;;;;;;;;;4981876;28;20050;-60
2023/05/23 01:10:55;;;;;;;10.55;8.90;;;;;;;;;;4984975;28;20130;-62
2023/05/23 01:13:38;;;;;;;8.60;7.80;;;;;;;;;;4979821;28;20091;-62
2023/05/23 01:16:27;;;;;;;11.07;7.68;;;;;;;;;;4983224;28;20041;-62
2023/05/23 01:19:13;;;;;;;9.40;8.43;;;;;;;;;;4972417;28;20055;-61
2023/05/23 01:21:39;;;;;;;10.68;9.43;;;;;;;;;;4961160;28;20084;-62
2023/05/23 01:24:22;;;;;;;9.18;8.27;;;;;;;;;;4980676;28;20507;-63
2023/05/23 01:26:56;;;;;;;12.02;8.80;;;;;;;;;;4978281;28;20044;-63
2023/05/23 01:29:27;;;;;;;8.82;7.55;;;;;;;;;;4977077;28;20046;-61
2023/05/23 01:31:54;;;;;;;9.98;8.43;;;;;;;;;;4980106;28;20050;-62
2023/05/23 01:34:20;;;;;;;9.30;8.25;;;;;;;;;;4981417;28;20437;-61
2023/05/23 01:36:48;;;;;;;8.57;7.68;;;;;;;;;;4980632;28;20043;-61
2023/05/23 01:39:14;;;;;;;10.90;8.45;;;;;;;;;;4978085;28;20038;-61
2023/05/23 01:41:39;;;;;;;9.98;8.32;;;;;;;;;;4979481;28;20053;-60
2023/05/23 01:44:05;;;;;;;10.02;9.00;;;;;;;;;;4994297;28;20397;-61
2023/05/23 01:46:31;;;;;;;9.85;8.52;;;;;;;;;;4977804;28;20073;-61
2023/05/23 01:48:57;;;;;;;9.75;7.55;;;;;;;;;;4976296;28;20061;-60
2023/05/23 01:51:23;;;;;;;9.93;7.28;;;;;;;;;;4978805;28;20034;-60
2023/05/23 01:53:50;;;;;;;9.65;7.80;;;;;;;;;;4980392;28;20457;-60
2023/05/23 01:56:15;;;;;;;10.25;7.75;;;;;;;;;;4980567;28;20075;-61
2023/05/23 01:58:41;;;;;;;9.63;8.27;;;;;;;;;;4979936;28;20049;-60
2023/05/23 02:01:06;;;;;;;10.43;7.47;;;;;;;;;;4985842;28;20041;-60
2023/05/23 02:03:32;;;;;;;7.78;6.97;;;;;;;;;;4981338;28;20045;-62
2023/05/23 02:05:57;;;;;;;8.32;7.47;;;;;;;;;;4979843;28;20071;-61
2023/05/23 02:08:22;;;;;;;8.82;7.63;;;;;;;;;;4978389;28;20051;-61
2023/05/23 02:10:48;;;;;;;9.65;7.47;;;;;;;;;;4978718;28;20433;-61
2023/05/23 02:13:13;;;;;;;13.52;8.18;;;;;;;;;;4978187;28;20097;-61
2023/05/23 02:15:39;;;;;;;8.73;7.60;;;;;;;;;;4980823;28;20406;-61
2023/05/23 02:18:05;;;;;;;8.75;7.75;;;;;;;;;;4970292;28;20821;-62
2023/05/23 02:20:30;;;;;;;10.13;7.50;;;;;;;;;;4980802;28;20399;-61
2023/05/23 02:22:56;;;;;;;9.80;8.10;;;;;;;;;;4983325;28;20359;-62
2023/05/23 02:25:22;;;;;;;11.27;7.70;;;;;;;;;;4978187;28;20793;-62
2023/05/23 02:27:47;;;;;;;9.05;7.93;;;;;;;;;;4979962;28;20042;-62
2023/05/23 02:30:13;;;;;;;11.10;9.70;;;;;;;;;;4978908;28;20035;-61
2023/05/23 02:32:38;;;;;;;10.95;8.75;;;;;;;;;;4978399;28;20104;-61
2023/05/23 02:35:05;;;;;;;10.27;9.10;;;;;;;;;;4980696;28;20465;-61
2023/05/23 02:37:30;;;;;;;9.20;8.20;;;;;;;;;;4985816;28;20450;-60
2023/05/23 02:39:55;;;;;;;10.63;8.02;;;;;;;;;;4978995;28;20053;-61
2023/05/23 02:42:21;;;;;;;12.45;9.18;;;;;;;;;;4993161;28;20097;-61
2023/05/23 02:44:47;;;;;;;10.80;8.20;;;;;;;;;;4971981;28;20044;-60
2023/05/23 02:47:12;;;;;;;11.98;8.30;;;;;;;;;;4979876;28;20486;-60
2023/05/23 02:49:37;;;;;;;9.40;8.38;;;;;;;;;;4983395;28;20121;-60
2023/05/23 02:52:05;;;;;;;11.63;8.60;;;;;;;;;;4977742;28;20114;-62
2023/05/23 02:54:31;;;;;;;10.30;9.13;;;;;;;;;;4995818;28;20127;-62
2023/05/23 02:56:57;;;;;;;11.15;8.77;;;;;;;;;;4982716;28;20083;-61
2023/05/23 02:59:23;;;;;;;14.82;8.52;;;;;;;;;;4996197;28;20053;-63
2023/05/23 03:01:49;;;;;;;10.25;8.10;;;;;;;;;;4979867;28;20490;-63
2023/05/23 03:04:15;;;;;;;9.27;8.05;;;;;;;;;;4980500;28;20037;-63
2023/05/23 03:06:43;;;;;;;10.68;8.48;;;;;;;;;;4981329;28;20983;-59
2023/05/23 03:09:08;;;;;;;8.57;7.72;;;;;;;;;;4969736;28;20074;-62
2023/05/23 03:11:34;;;;;;;9.80;8.25;;;;;;;;;;4982806;28;20176;-60
2023/05/23 03:14:00;;;;;;;10.63;7.60;;;;;;;;;;4983632;28;20531;-62
2023/05/23 03:16:25;;;;;;;10.93;8.90;;;;;;;;;;4987585;28;20076;-63
2023/05/23 03:18:51;;;;;;;10.27;8.68;;;;;;;;;;4983481;28;20500;-62
2023/05/23 03:21:16;;;;;;;10.82;8.35;;;;;;;;;;4973048;28;20490;-61
2023/05/23 03:23:42;;;;;;;10.13;7.57;;;;;;;;;;4982374;28;20088;-61
2023/05/23 03:26:07;;;;;;;13.05;8.55;;;;;;;;;;4981947;28;20034;-60
2023/05/23 03:28:33;;;;;;;9.52;7.70;;;;;;;;;;4988825;28;20045;-60
2023/05/23 03:30:59;;;;;;;10.00;8.07;;;;;;;;;;4984063;28;20521;-62
2023/05/23 03:33:25;;;;;;;14.13;8.73;;;;;;;;;;4979236;28;20164;-60
2023/05/23 03:35:51;;;;;;;13.30;9.60;;;;;;;;;;4981267;28;20070;-60
2023/05/23 03:38:17;;;;;;;8.32;7.53;;;;;;;;;;4984223;28;20431;-60
2023/05/23 03:40:42;;;;;;;8.63;7.57;;;;;;;;;;4985295;28;20077;-61
2023/05/23 03:43:08;;;;;;;11.77;8.13;;;;;;;;;;4986062;28;20613;-60
2023/05/23 03:45:36;;;;;;;10.70;7.93;;;;;;;;;;4984703;28;20478;-62
2023/05/23 03:48:06;;;;;;;12.27;8.35;;;;;;;;;;4982779;28;20117;-61
2023/05/23 03:50:32;;;;;;;9.20;8.18;;;;;;;;;;4980431;28;20060;-60
2023/05/23 03:52:57;;;;;;;9.68;7.97;;;;;;;;;;4979766;28;20054;-62
2023/05/23 03:55:24;;;;;;;8.75;7.28;;;;;;;;;;4994998;28;20042;-60
2023/05/23 03:57:50;;;;;;;12.95;7.85;;;;;;;;;;4988399;28;20043;-63
2023/05/23 04:00:17;;;;;;;8.73;7.68;;;;;;;;;;4970709;28;20200;-63
2023/05/23 04:02:43;;;;;;;8.63;7.63;;;;;;;;;;4981538;28;20056;-60
2023/05/23 04:05:09;;;;;;;10.02;7.50;;;;;;;;;;4984041;28;20033;-61
2023/05/23 04:07:36;;;;;;;13.43;8.52;;;;;;;;;;4971936;28;20035;-60
2023/05/23 04:10:02;;;;;;;9.48;7.68;;;;;;;;;;4995848;28;20501;-60
2023/05/23 04:12:30;;;;;;;7.97;7.20;;;;;;;;;;4982420;28;20537;-61
2023/05/23 04:14:56;;;;;;;9.15;7.65;;;;;;;;;;4982985;28;20041;-61
2023/05/23 04:17:22;;;;;;;10.20;7.80;;;;;;;;;;4994810;28;20115;-60
2023/05/23 04:19:49;;;;;;;10.68;7.82;;;;;;;;;;4985985;28;20085;-60
2023/05/23 04:22:15;;;;;;;9.60;7.95;;;;;;;;;;4983793;28;20038;-60
2023/05/23 04:24:40;;;;;;;10.73;8.73;;;;;;;;;;4981420;28;20382;-61
2023/05/23 04:27:07;;;;;;;8.88;7.97;;;;;;;;;;4977340;28;20046;-61
2023/05/23 04:29:33;;;;;;;11.00;8.68;;;;;;;;;;4995886;28;20026;-60
2023/05/23 04:31:59;;;;;;;10.68;8.10;;;;;;;;;;4984396;28;20482;-61
2023/05/23 04:34:25;;;;;;;14.20;9.20;;;;;;;;;;4982280;28;20439;-61
2023/05/23 04:36:53;;;;;;;8.52;7.63;;;;;;;;;;4977251;28;20152;-61
2023/05/23 04:39:19;;;;;;;7.88;7.10;;;;;;;;;;4979520;28;20042;-60
2023/05/23 04:42:06;;;;;;;;;;;;;;;;;;4981179;28;20085;-62
2023/05/23 04:44:45;;;;;;;8.80;7.90;;;;;;;;;;4996842;28;19921;-61
2023/05/23 04:47:19;;;;;;;8.33;7.50;;;;;;;;;;4955437;28;20034;-62
2023/05/23 04:50:00;;;;;;;11.27;8.38;;;;;;;;;;4982016;28;20591;-61
2023/05/23 04:52:28;;;;;;;7.85;6.95;;;;;;;;;;4997935;28;20084;-62
2023/05/23 04:54:54;;;;;;;9.80;7.47;;;;;;;;;;4984783;28;20026;-63
2023/05/23 04:57:20;;;;;;;9.63;8.07;;;;;;;;;;4981170;28;20045;-63
2023/05/23 04:59:46;;;;;;;9.15;7.40;;;;;;;;;;4987983;28;20042;-60
2023/05/23 05:02:11;;;;;;;9.38;7.07;;;;;;;;;;4985087;28;20049;-64
2023/05/23 05:04:37;;;;;;;10.93;7.25;;;;;;;;;;4983973;28;20480;-66
2023/05/23 05:07:05;;;;;;;10.48;6.82;;;;;;;;;;4979177;28;20054;-67
2023/05/23 05:09:32;;;;;;;8.40;7.20;;;;;;;;;;4978936;28;20034;-61
2023/05/23 05:11:58;;;;;;;7.80;7.00;;;;;;;;;;4987592;28;20069;-62
2023/05/23 05:14:24;;;;;;;7.78;7.03;;;;;;;;;;4969304;28;20062;-63
2023/05/23 05:16:49;;;;;;;10.18;7.30;;;;;;;;;;4978090;28;20033;-62
2023/05/23 05:19:15;;;;;;;7.80;7.07;;;;;;;;;;4981928;28;20497;-63
2023/05/23 05:21:40;;;;;;;8.82;7.80;;;;;;;;;;4971467;28;20040;-62
2023/05/23 05:24:08;;;;;;;11.00;7.78;;;;;;;;;;4983991;28;20093;-62
2023/05/23 05:26:35;;;;;;;8.35;7.55;;;;;;;;;;4981079;28;20242;-62
2023/05/23 05:29:01;;;;;;;9.02;8.05;;;;;;;;;;4977300;28;20054;-63
2023/05/23 05:31:26;;;;;;;11.18;8.25;;;;;;;;;;4996768;28;20144;-61
2023/05/23 05:33:51;;;;;;;8.50;7.70;;;;;;;;;;4983469;28;20061;-61
2023/05/23 05:36:18;;;;;;;8.85;7.95;;;;;;;;;;4980815;28;20433;-63
2023/05/23 05:38:45;;;;;;;11.48;9.95;;;;;;;;;;4969932;28;20118;-63
2023/05/23 05:41:11;;;;;;;9.40;7.88;;;;;;;;;;4983728;28;20583;-63
2023/05/23 05:43:40;;;;;;;11.77;10.57;;;;;;;;;;4966313;28;20022;-63
2023/05/23 05:46:07;;;;;;;11.38;9.18;;;;;;;;;;4982159;28;20042;-62
2023/05/23 05:48:32;;;;;;;11.43;10.30;;;;;;;;;;4994756;28;20034;-65
2023/05/23 05:51:02;;;;;;;10.65;8.82;;;;;;;;;;4978275;28;20077;-64
2023/05/23 05:53:30;;;;;;;14.00;11.48;;;;;;;;;;4983925;28;20054;-64
2023/05/23 05:55:56;;;;;;;13.13;9.82;;;;;;;;;;4982681;28;20064;-64
2023/05/23 05:58:21;;;;;;;11.25;10.25;;;;;;;;;;4968943;28;20088;-64
2023/05/23 06:01:05;;;;;;;11.93;10.02;;;;;;;;;;4983073;28;20284;-64
2023/05/23 06:03:31;;;;;;;14.90;11.23;;;;;;;;;;4978077;28;20054;-64
2023/05/23 06:05:57;;;;;;;12.13;10.88;;;;;;;;;;4977085;28;20045;-65
2023/05/23 06:08:22;;;;;;;13.07;9.55;;;;;;;;;;4982438;28;20897;-64
2023/05/23 06:10:48;;;;;;;13.20;10.88;;;;;;;;;;4969918;28;20317;-65
2023/05/23 06:13:13;;;;;;;11.70;10.50;;;;;;;;;;4983777;28;20525;-66
2023/05/23 06:15:42;;;;;;;12.93;11.52;;;;;;;;;;4982385;28;20089;-63
2023/05/23 06:18:07;;;;;;;11.75;10.55;;;;;;;;;;4976764;28;20062;-64
2023/05/23 06:20:33;;;;;;;14.45;11.80;;;;;;;;;;4968989;28;20035;-64
2023/05/23 06:23:04;;;;;;;11.90;10.32;;;;;;;;;;4969567;28;20297;-60
2023/05/23 06:25:30;;;;;;;12.07;10.77;;;;;;;;;;4995205;28;20058;-62
2023/05/23 06:27:55;;;;;;;11.88;10.65;;;;;;;;;;4969344;28;20081;-62
2023/05/23 06:30:23;;;;;;;14.35;10.70;;;;;;;;;;4954911;28;20084;-62
2023/05/23 06:32:48;;;;;;;11.20;10.10;;;;;;;;;;4979595;28;20185;-61
2023/05/23 06:35:13;;;;;;;11.43;10.27;;;;;;;;;;4983096;28;20042;-62
2023/05/23 06:37:44;;;;;;;12.75;11.43;;;;;;;;;;4979011;28;20108;-62
2023/05/23 06:40:10;;;;;;;10.98;9.85;;;;;;;;;;4979439;28;20121;-62
2023/05/23 06:42:35;;;;;;;14.88;10.63;;;;;;;;;;4978455;28;20047;-63
2023/05/23 06:45:11;;;;;;;13.52;12.02;;;;;;;;;;4978616;28;20470;-62
2023/05/23 06:47:36;;;;;;;10.88;9.38;;;;;;;;;;4981891;28;20819;-62
2023/05/23 06:50:02;;;;;;;11.52;9.93;;;;;;;;;;4982329;28;20035;-62
2023/05/23 06:52:30;;;;;;;14.63;12.00;;;;;;;;;;4973510;28;20556;-60
2023/05/23 06:54:56;;;;;;;12.80;10.38;;;;;;;;;;4981259;28;20505;-61
2023/05/23 06:57:22;;;;;;;12.25;10.70;;;;;;;;;;4997152;28;20039;-62
2023/05/23 06:59:48;;;;;;;10.73;8.95;;;;;;;;;;4986485;28;20573;-62
2023/05/23 07:02:14;;;;;;;11.52;10.30;;;;;;;;;;4999980;28;20041;-61
2023/05/23 07:04:39;;;;;;;10.88;9.77;;;;;;;;;;4981226;28;20310;-61
2023/05/23 07:07:12;;;;;;;11.50;10.40;;;;;;;;;;4987771;28;20092;-62
2023/05/23 07:09:38;;;;;;;12.63;10.10;;;;;;;;;;4985700;28;20515;-62
2023/05/23 07:12:11;;;;;;;11.65;9.52;;;;;;;;;;4995790;28;20709;-62
2023/05/23 07:14:40;;;;;;;10.40;9.30;;;;;;;;;;4996171;28;20038;-62
2023/05/23 07:17:06;;;;;;;11.57;10.35;;;;;;;;;;4972028;28;20540;-62
2023/05/23 07:19:33;;;;;;;12.60;8.95;;;;;;;;;;4972418;28;20054;-62
2023/05/23 07:21:59;;;;;;;11.13;9.95;;;;;;;;;;4980810;28;20552;-62
2023/05/23 07:24:25;;;;;;;13.02;10.45;;;;;;;;;;4974185;28;20038;-61
2023/05/23 07:26:52;;;;;;;11.77;10.57;;;;;;;;;;4984373;28;20122;-62
2023/05/23 07:29:17;;;;;;;12.77;9.95;;;;;;;;;;4987693;28;20224;-62
2023/05/23 07:31:45;;;;;;;12.85;11.40;;;;;;;;;;4987175;28;20430;-63
2023/05/23 07:34:12;;;;;;;10.38;9.38;;;;;;;;;;4982928;28;20406;-62
2023/05/23 07:36:51;;;;;;;11.30;10.20;;;;;;;;;;4998546;28;20081;-62
2023/05/23 07:39:21;;;;;;;11.27;9.38;;;;;;;;;;4987505;28;20025;-61
2023/05/23 07:41:48;;;;;;;10.85;9.75;;;;;;;;;;4996550;28;20049;-62
2023/05/23 07:44:15;;;;;;;12.05;9.10;;;;;;;;;;4999278;28;20030;-65
2023/05/23 07:46:40;;;;;;;12.85;9.95;;;;;;;;;;4971624;28;20084;-65
2023/05/23 07:49:06;;;;;;;13.35;8.68;;;;;;;;;;4986464;28;20227;-63
2023/05/23 07:51:32;;;;;;;10.95;9.68;;;;;;;;;;4983275;28;20050;-62
2023/05/23 07:53:58;;;;;;;12.48;8.15;;;;;;;;;;4970791;28;20043;-62
2023/05/23 07:56:23;;;;;;;10.23;9.23;;;;;;;;;;4985625;28;20453;-62
2023/05/23 07:58:49;;;;;;;11.38;9.68;;;;;;;;;;5000625;28;20649;-63
2023/05/23 08:01:14;;;;;;;11.20;9.80;;;;;;;;;;4981969;28;20072;-62
2023/05/23 08:04:02;;;;;;;10.27;9.15;;;;;;;;;;4965998;28;20177;-60
2023/05/23 08:06:36;;;;;;;10.38;9.02;;;;;;;;;;4971975;28;20948;-62
2023/05/23 08:09:05;;;;;;;9.82;8.82;;;;;;;;;;4995491;28;20081;-63
2023/05/23 08:11:32;;;;;;;10.13;8.57;;;;;;;;;;4979974;28;20042;-63
2023/05/23 08:13:58;;;;;;;9.70;8.73;;;;;;;;;;4981976;28;20426;-63
2023/05/23 08:16:47;;;;;;;10.27;8.75;;;;;;;;;;4981019;28;20052;-63
2023/05/23 08:19:18;;;;;;;14.23;8.23;;;;;;;;;;4983694;28;20054;-63
2023/05/23 08:21:45;;;;;;;10.65;8.63;;;;;;;;;;4984180;28;20524;-63
2023/05/23 08:24:11;;;;;;;9.98;8.85;;;;;;;;;;4982337;28;20064;-62
2023/05/23 08:26:38;;;;;;;12.25;9.93;;;;;;;;;;4977381;28;20041;-63
2023/05/23 08:29:09;;;;;;;14.57;9.15;;;;;;;;;;4982524;28;20114;-63
2023/05/23 08:31:34;;;;;;;9.93;8.90;;;;;;;;;;4972203;28;20042;-62
2023/05/23 08:34:00;;;;;;;9.38;8.55;;;;;;;;;;4982438;28;20039;-62
2023/05/23 08:36:25;;;;;;;11.20;9.07;;;;;;;;;;4981479;28;20085;-63
2023/05/23 08:38:51;;;;;;;10.60;9.45;;;;;;;;;;4983956;28;20038;-61
2023/05/23 08:41:23;;;;;;;9.48;8.52;;;;;;;;;;4981739;28;20026;-61
2023/05/23 08:43:55;;;;;;;9.55;8.65;;;;;;;;;;4983062;28;20613;-63
2023/05/23 08:46:26;;;;;;;10.45;9.43;;;;;;;;;;4979726;28;20081;-61
2023/05/23 08:48:53;;;;;;;10.82;8.93;;;;;;;;;;4979309;28;20065;-61
2023/05/23 08:51:26;;;;;;;10.23;8.43;;;;;;;;;;4977695;28;20432;-61
2023/05/23 08:53:55;;;;;;;9.73;8.77;;;;;;;;;;4982377;28;20548;-60
2023/05/23 08:56:23;;;;;;;9.63;8.68;;;;;;;;;;4970972;28;20201;-61
2023/05/23 08:58:49;;;;;;;9.27;8.13;;;;;;;;;;4970547;28;20053;-62
2023/05/23 09:01:19;;;;;;;10.85;9.25;;;;;;;;;;4983916;28;20140;-61
2023/05/23 09:03:49;;;;;;;11.48;9.18;;;;;;;;;;4971252;28;20466;-62
2023/05/23 09:06:22;;;;;;;14.48;10.10;;;;;;;;;;4997412;28;20069;-61
2023/05/23 09:08:48;;;;;;;14.45;10.98;;;;;;;;;;4979275;28;20050;-63
2023/05/23 09:11:15;;;;;;;12.27;9.65;;;;;;;;;;4980710;28;20038;-62
2023/05/23 09:13:43;;;;;;;10.60;9.50;;;;;;;;;;4981935;28;20030;-62
2023/05/23 09:16:11;;;;;;;12.02;9.38;;;;;;;;;;4981675;28;20294;-62
2023/05/23 09:18:43;;;;;;;9.18;8.18;;;;;;;;;;4979660;28;20502;-62
2023/05/23 09:21:12;;;;;;;12.07;9.10;;;;;;;;;;4978299;28;20097;-61
2023/05/23 09:23:44;;;;;;;9.70;8.52;;;;;;;;;;4994519;28;20478;-60
2023/05/23 09:26:12;;;;;;;10.68;8.52;;;;;;;;;;4982257;28;20449;-62
2023/05/23 09:28:39;;;;;;;12.13;9.93;;;;;;;;;;4994897;28;20473;-62
2023/05/23 09:31:07;;;;;;;13.88;10.55;;;;;;;;;;4979068;28;20030;-63
2023/05/23 09:33:43;;;;;;;11.23;10.05;;;;;;;;;;4980336;28;21034;-64
2023/05/23 09:36:09;;;;;;;11.45;10.40;;;;;;;;;;4954085;28;20041;-62
2023/05/23 09:38:38;;;;;;;10.50;9.60;;;;;;;;;;4995630;28;20118;-62
2023/05/23 09:41:04;;;;;;;10.57;9.55;;;;;;;;;;4982346;28;20041;-62
2023/05/23 09:43:29;;;;;;;11.18;10.00;;;;;;;;;;4981366;28;20471;-62
2023/05/23 09:46:05;;;;;;;11.48;10.40;;;;;;;;;;4986464;28;20042;-61
2023/05/23 09:48:32;;;;;;;11.73;10.05;;;;;;;;;;4982327;28;20041;-61
2023/05/23 09:50:58;;;;;;;12.60;10.18;;;;;;;;;;4977986;28;20117;-61
2023/05/23 09:53:23;;;;;;;12.10;10.15;;;;;;;;;;4995931;28;20156;-61
2023/05/23 09:55:53;;;;;;;12.40;10.90;;;;;;;;;;4980536;28;20107;-61
2023/05/23 09:58:19;;;;;;;10.90;9.82;;;;;;;;;;4979660;28;20046;-61
2023/05/23 10:00:45;;;;;;;12.93;10.45;;;;;;;;;;4978313;28;20034;-62
2023/05/23 10:03:11;;;;;;;11.13;9.48;;;;;;;;;;4978950;28;20317;-63
2023/05/23 10:05:42;;;;;;;11.30;10.30;;;;;;;;;;4979657;28;20612;-62
2023/05/23 10:08:28;;;;;;;12.10;10.73;;;;;;;;;;4973773;28;20141;-62
2023/05/23 10:10:54;;;;;;;10.95;10.05;;;;;;;;;;4977168;28;20050;-63
2023/05/23 10:13:19;;;;;;;11.70;10.18;;;;;;;;;;4977985;28;20577;-63
2023/05/23 10:15:46;;;;;;;14.25;12.68;;;;;;;;;;4980430;28;20042;-62
2023/05/23 10:18:16;;;;;;;16.33;11.60;;;;;;;;;;4976557;28;20451;-63
2023/05/23 10:20:46;;;;;;;14.77;11.32;;;;;;;;;;4980193;28;20037;-62
2023/05/23 10:23:12;;;;;;;11.88;10.57;;;;;;;;;;4996764;28;20496;-64
2023/05/23 10:25:38;;;;;;;11.70;10.65;;;;;;;;;;4985269;28;20125;-64
2023/05/23 10:28:03;;;;;;;21.17;10.43;;;;;;;;;;4982836;28;20410;-64
2023/05/23 10:30:29;;;;;;;12.52;11.20;;;;;;;;;;4980466;28;20031;-61
2023/05/23 10:32:55;;;;;;;14.68;10.40;;;;;;;;;;4983371;28;20994;-61
2023/05/23 10:35:20;;;;;;;11.98;9.90;;;;;;;;;;4980307;28;20029;-62
2023/05/23 10:37:46;;;;;;;11.07;10.07;;;;;;;;;;4983464;28;20026;-62
2023/05/23 10:40:31;;;;;;;10.52;9.55;;;;;;;;;;4981133;28;20096;-62
2023/05/23 10:43:12;;;;;;;11.25;10.15;;;;;;;;;;4984849;28;20065;-63
2023/05/23 10:45:41;;;;;;;11.55;10.55;;;;;;;;;;4983243;28;20120;-59
2023/05/23 10:48:16;;;;;;;11.07;10.07;;;;;;;;;;4990972;28;20034;-62
2023/05/23 10:50:41;;;;;;;10.52;9.52;;;;;;;;;;4986217;28;20444;-63
2023/05/23 10:53:08;;;;;;;11.38;10.05;;;;;;;;;;4982986;28;20046;-61
2023/05/23 10:55:34;;;;;;;9.82;9.02;;;;;;;;;;4984410;28;20042;-61
2023/05/23 10:58:21;;;;;;;10.45;9.55;;;;;;;;;;4981535;28;20046;-61
2023/05/23 11:00:52;;;;;;;11.05;10.10;;;;;;;;;;4983106;28;20551;-61
2023/05/23 11:03:17;;;;;;;8.65;7.85;;;;;;;;;;4981699;28;20500;-60
2023/05/23 11:05:52;;;;;;;9.93;9.00;;;;;;;;;;4980792;28;20050;-60
2023/05/23 11:08:19;;;;;;;11.93;8.35;;;;;;;;;;4981740;28;20061;-61
2023/05/23 11:10:53;;;;;;;10.10;8.20;;;;;;;;;;4981757;28;20034;-60
2023/05/23 11:13:19;;;;;;;;;;;;;;;;;;4983460;28;20042;-60
2023/05/23 11:15:44;;;;;;;8.68;7.90;;;;;;;;;;4983994;28;19914;-60
2023/05/23 11:18:18;;;;;;;17.10;9.55;;;;;;;;;;4987816;28;20116;-59
2023/05/23 11:20:46;;;;;;;10.55;8.32;;;;;;;;;;4982490;28;20597;-60
2023/05/23 11:23:11;;;;;;;9.02;8.15;;;;;;;;;;4981657;28;20046;-60
2023/05/23 11:25:43;;;;;;;10.07;8.82;;;;;;;;;;4982128;28;20096;-60
2023/05/23 11:28:12;;;;;;;11.32;8.70;;;;;;;;;;4982730;28;20070;-59
2023/05/23 11:30:37;;;;;;;9.82;8.82;;;;;;;;;;4983507;28;20600;-61
2023/05/23 11:33:12;;;;;;;9.35;8.55;;;;;;;;;;4998242;28;20145;-61
2023/05/23 11:35:37;;;;;;;;;;;;;;;;;;4982505;28;20095;-62
2023/05/23 11:38:03;;;;;;;8.88;8.18;;;;;;;;;;4981436;28;19914;-62
2023/05/23 11:40:33;;;;;;;10.35;9.27;;;;;;;;;;4982254;28;20435;-62
2023/05/23 11:42:59;;;;;;;9.65;8.75;;;;;;;;;;4982558;28;20221;-63
2023/05/23 11:45:25;;;;;;;8.52;7.80;;;;;;;;;;4980407;28;20034;-62
2023/05/23 11:47:50;;;;;;;9.27;8.27;;;;;;;;;;4981040;28;20045;-62
2023/05/23 11:50:16;;;;;;;9.13;8.32;;;;;;;;;;4984624;28;20353;-62
2023/05/23 11:52:42;;;;;;;8.88;8.18;;;;;;;;;;4982243;28;20046;-62
2023/05/23 11:55:08;;;;;;;11.55;9.15;;;;;;;;;;4979385;28;20532;-62
2023/05/23 11:57:37;;;;;;;9.57;8.38;;;;;;;;;;4980899;28;20042;-62
2023/05/23 12:00:02;;;;;;;8.32;7.45;;;;;;;;;;4986626;28;20045;-61
2023/05/23 12:02:30;;;;;;;8.50;7.82;;;;;;;;;;4981142;28;20112;-61
2023/05/23 12:04:55;;;;;;;8.98;8.15;;;;;;;;;;4979996;28;20554;-61
2023/05/23 12:07:21;;;;;;;8.88;8.18;;;;;;;;;;4982969;28;20367;-61
2023/05/23 12:09:46;;;;;;;7.88;7.07;;;;;;;;;;4979468;28;20030;-62
2023/05/23 12:12:12;;;;;;;9.18;8.27;;;;;;;;;;4981342;28;20457;-61
2023/05/23 12:14:43;;;;;;;6.95;6.35;;;;;;;;;;4983108;28;20045;-61
2023/05/23 12:17:10;;;;;;;9.05;7.65;;;;;;;;;;4983130;28;20030;-61
2023/05/23 12:19:35;;;;;;;8.38;7.63;;;;;;;;;;4980073;28;20053;-61
2023/05/23 12:22:05;;;;;;;8.80;7.90;;;;;;;;;;4981554;28;20402;-62
2023/05/23 12:24:30;;;;;;;8.15;7.30;;;;;;;;;;4980653;28;20394;-61
2023/05/23 12:27:00;;;;;;;9.18;8.30;;;;;;;;;;4984413;28;20041;-61
2023/05/23 12:29:29;;;;;;;9.10;7.10;;;;;;;;;;4980933;28;20042;-61
2023/05/23 12:31:57;;;;;;;7.57;6.88;;;;;;;;;;4982589;28;20433;-60
2023/05/23 12:34:22;;;;;;;9.38;7.60;;;;;;;;;;4980814;28;20161;-61
2023/05/23 12:36:48;;;;;;;8.50;7.18;;;;;;;;;;4981776;28;20482;-60
2023/05/23 12:39:14;;;;;;;8.18;7.43;;;;;;;;;;4979519;28;20034;-63
2023/05/23 12:41:43;;;;;;;8.32;7.45;;;;;;;;;;4983446;28;20434;-60
2023/05/23 12:44:09;;;;;;;8.82;8.02;;;;;;;;;;4982199;28;20049;-59
2023/05/23 12:46:35;;;;;;;8.60;7.95;;;;;;;;;;4978620;28;20034;-60
2023/05/23 12:49:00;;;;;;;9.07;8.38;;;;;;;;;;4981640;28;20455;-61
2023/05/23 12:51:25;;;;;;;8.85;8.15;;;;;;;;;;4982510;28;20470;-61
2023/05/23 12:53:51;;;;;;;9.65;8.40;;;;;;;;;;4981268;28;20065;-61
2023/05/23 12:56:16;;;;;;;11.75;10.05;;;;;;;;;;4982974;28;20445;-60
2023/05/23 12:58:42;;;;;;;9.43;8.60;;;;;;;;;;4979786;28;20581;-61
2023/05/23 13:01:08;;;;;;;9.63;8.73;;;;;;;;;;4979155;28;20030;-60
2023/05/23 13:03:33;;;;;;;9.43;8.73;;;;;;;;;;4980530;28;20379;-61
2023/05/23 13:06:09;;;;;;;9.68;8.68;;;;;;;;;;5105610;27;20506;-60
2023/05/23 13:08:35;;;;;;;9.07;8.20;;;;;;;;;;5090128;28;20600;-60
2023/05/23 13:11:00;;;;;;;9.73;8.93;;;;;;;;;;5090144;28;20036;-60
2023/05/23 13:13:26;;;;;;;8.57;7.78;;;;;;;;;;5092624;28;20012;-60
2023/05/23 13:15:51;;;;;;;8.85;8.05;;;;;;;;;;5091083;28;20035;-60
2023/05/23 13:18:17;;;;;;;8.98;8.15;;;;;;;;;;5093247;28;20424;-60
2023/05/23 13:20:43;;;;;;;9.52;8.73;;;;;;;;;;5089773;28;20111;-61
2023/05/23 13:23:08;;;;;;;9.73;8.88;;;;;;;;;;5089027;28;20055;-61
2023/05/23 13:25:34;;;;;;;9.57;8.65;;;;;;;;;;5092953;28;20103;-61
2023/05/23 13:28:00;;;;;;;10.77;8.82;;;;;;;;;;5092524;28;20144;-60
2023/05/23 13:30:26;;;;;;;8.70;8.00;;;;;;;;;;5089809;28;20055;-59
2023/05/23 13:32:51;;;;;;;10.10;8.93;;;;;;;;;;5091452;28;20062;-61
2023/05/23 13:35:17;;;;;;;11.35;10.20;;;;;;;;;;5093610;28;20059;-61
2023/05/23 13:37:42;;;;;;;9.40;8.65;;;;;;;;;;5092627;28;20125;-59
2023/05/23 13:40:11;;;;;;;10.75;9.85;;;;;;;;;;5080926;28;20487;-60
2023/05/23 13:42:36;;;;;;;13.73;10.23;;;;;;;;;;5095616;28;20028;-60
2023/05/23 13:45:03;;;;;;;13.23;11.30;;;;;;;;;;5089874;28;20044;-62
2023/05/23 13:47:29;;;;;;;11.77;10.57;;;;;;;;;;5090847;28;20348;-59
2023/05/23 13:49:55;;;;;;;10.77;9.68;;;;;;;;;;5088301;28;20035;-60
2023/05/23 13:52:20;;;;;;;11.85;9.30;;;;;;;;;;5089125;28;20063;-60
2023/05/23 13:54:45;;;;;;;11.57;10.38;;;;;;;;;;5092536;28;20114;-61
2023/05/23 13:57:11;;;;;;;9.88;8.95;;;;;;;;;;5073075;28;20044;-60
2023/05/23 13:59:36;;;;;;;10.13;9.23;;;;;;;;;;5090319;28;20475;-61
2023/05/23 14:02:01;;;;;;;13.57;9.55;;;;;;;;;;5087662;28;20306;-59
2023/05/23 14:04:27;;;;;;;9.65;8.93;;;;;;;;;;5082497;28;20482;-61
2023/05/23 14:06:53;;;;;;;10.05;9.15;;;;;;;;;;5069399;28;20050;-60
2023/05/23 14:09:18;;;;;;;10.23;9.23;;;;;;;;;;5069811;28;20032;-56
2023/05/23 14:11:43;;;;;;;11.10;8.90;;;;;;;;;;5063419;28;20036;-65
2023/05/23 14:14:09;;;;;;;10.05;9.15;;;;;;;;;;5069804;28;20282;-60
2023/05/23 14:16:34;;;;;;;9.85;8.93;;;;;;;;;;5060622;28;20036;-59
2023/05/23 14:19:00;;;;;;;8.93;7.95;;;;;;;;;;5056761;28;20037;-60
2023/05/23 14:21:27;;;;;;;9.30;8.30;;;;;;;;;;5056368;28;20035;-61
2023/05/23 14:23:52;;;;;;;9.93;9.02;;;;;;;;;;5057485;28;20040;-60
2023/05/23 14:26:17;;;;;;;9.95;8.93;;;;;;;;;;5055846;28;20068;-61
2023/05/23 14:28:43;;;;;;;11.43;8.68;;;;;;;;;;5057230;28;20021;-59
2023/05/23 14:31:08;;;;;;;10.48;8.30;;;;;;;;;;5038842;28;20122;-60
2023/05/23 14:33:34;;;;;;;16.45;8.48;;;;;;;;;;5057915;28;20105;-60